sensor_id;sensor_type;location;lat;lon;timestamp;P1;durP1;ratioP1;P2;durP2;ratioP2
30303;SDS011;17112;48.636;10.152;2022-11-03T00:01:56;9.20;;;3.70;;
30303;SDS011;17112;48.636;10.152;2022-11-03T00:04:21;7.85;;;3.60;;
30303;SDS011;17112;48.636;10.152;2022-11-03T00:06:51;5.65;;;3.25;;
30303;SDS011;17112;48.636;10.152;2022-11-03T00:09:18;8.55;;;3.08;;
30303;SDS011;17112;48.636;10.152;2022-11-03T00:11:46;8.27;;;4.10;;
30303;SDS011;17112;48.636;10.152;2022-11-03T00:14:14;7.00;;;2.97;;
30303;SDS011;17112;48.636;10.152;2022-11-03T00:16:41;5.53;;;2.67;;
30303;SDS011;17112;48.636;10.152;2022-11-03T00:19:08;6.60;;;2.30;;
30303;SDS011;17112;48.636;10.152;2022-11-03T00:21:34;6.30;;;2.80;;
30303;SDS011;17112;48.636;10.152;2022-11-03T00:24:01;5.40;;;2.45;;
30303;SDS011;17112;48.636;10.152;2022-11-03T00:26:30;7.25;;;2.90;;
30303;SDS011;17112;48.636;10.152;2022-11-03T00:29:00;6.30;;;2.53;;
30303;SDS011;17112;48.636;10.152;2022-11-03T00:31:38;8.85;;;2.65;;
30303;SDS011;17112;48.636;10.152;2022-11-03T00:34:05;5.90;;;2.78;;
30303;SDS011;17112;48.636;10.152;2022-11-03T00:36:33;6.38;;;2.40;;
30303;SDS011;17112;48.636;10.152;2022-11-03T00:39:00;3.80;;;2.72;;
30303;SDS011;17112;48.636;10.152;2022-11-03T00:41:28;7.22;;;2.83;;
30303;SDS011;17112;48.636;10.152;2022-11-03T00:43:54;7.20;;;2.83;;
30303;SDS011;17112;48.636;10.152;2022-11-03T00:46:20;8.15;;;3.20;;
30303;SDS011;17112;48.636;10.152;2022-11-03T00:48:47;5.95;;;3.00;;
30303;SDS011;17112;48.636;10.152;2022-11-03T00:51:17;6.72;;;3.00;;
30303;SDS011;17112;48.636;10.152;2022-11-03T00:53:44;4.43;;;2.80;;
30303;SDS011;17112;48.636;10.152;2022-11-03T00:56:14;4.70;;;3.22;;
30303;SDS011;17112;48.636;10.152;2022-11-03T00:58:42;7.65;;;3.10;;
30303;SDS011;17112;48.636;10.152;2022-11-03T01:01:12;6.18;;;3.22;;
30303;SDS011;17112;48.636;10.152;2022-11-03T01:03:41;7.85;;;3.13;;
30303;SDS011;17112;48.636;10.152;2022-11-03T01:06:27;10.07;;;3.80;;
30303;SDS011;17112;48.636;10.152;2022-11-03T01:09:11;6.45;;;3.45;;
30303;SDS011;17112;48.636;10.152;2022-11-03T01:11:37;6.65;;;3.55;;
30303;SDS011;17112;48.636;10.152;2022-11-03T01:14:09;7.25;;;3.72;;
30303;SDS011;17112;48.636;10.152;2022-11-03T01:16:37;7.47;;;3.58;;
30303;SDS011;17112;48.636;10.152;2022-11-03T01:19:03;8.27;;;3.60;;
30303;SDS011;17112;48.636;10.152;2022-11-03T01:21:29;7.22;;;3.67;;
30303;SDS011;17112;48.636;10.152;2022-11-03T01:23:55;7.90;;;3.53;;
30303;SDS011;17112;48.636;10.152;2022-11-03T01:26:20;7.78;;;3.40;;
30303;SDS011;17112;48.636;10.152;2022-11-03T01:28:46;6.40;;;2.95;;
30303;SDS011;17112;48.636;10.152;2022-11-03T01:31:14;5.18;;;2.80;;
30303;SDS011;17112;48.636;10.152;2022-11-03T01:33:45;6.07;;;2.75;;
30303;SDS011;17112;48.636;10.152;2022-11-03T01:36:11;5.72;;;2.80;;
30303;SDS011;17112;48.636;10.152;2022-11-03T01:38:38;5.72;;;2.75;;
30303;SDS011;17112;48.636;10.152;2022-11-03T01:41:05;4.68;;;2.30;;
30303;SDS011;17112;48.636;10.152;2022-11-03T01:43:32;6.20;;;3.00;;
30303;SDS011;17112;48.636;10.152;2022-11-03T01:48:47;3.97;;;2.83;;
30303;SDS011;17112;48.636;10.152;2022-11-03T01:51:22;4.80;;;2.30;;
30303;SDS011;17112;48.636;10.152;2022-11-03T01:53:49;7.50;;;2.90;;
30303;SDS011;17112;48.636;10.152;2022-11-03T01:56:17;5.35;;;2.75;;
30303;SDS011;17112;48.636;10.152;2022-11-03T01:58:45;5.68;;;2.60;;
30303;SDS011;17112;48.636;10.152;2022-11-03T02:01:14;4.65;;;2.70;;
30303;SDS011;17112;48.636;10.152;2022-11-03T02:03:41;4.88;;;2.80;;
30303;SDS011;17112;48.636;10.152;2022-11-03T02:06:12;5.93;;;3.13;;
30303;SDS011;17112;48.636;10.152;2022-11-03T02:08:40;5.47;;;2.78;;
30303;SDS011;17112;48.636;10.152;2022-11-03T02:11:11;9.98;;;3.10;;
30303;SDS011;17112;48.636;10.152;2022-11-03T02:13:56;8.40;;;2.92;;
30303;SDS011;17112;48.636;10.152;2022-11-03T02:16:22;5.13;;;2.95;;
30303;SDS011;17112;48.636;10.152;2022-11-03T02:18:50;7.82;;;3.28;;
30303;SDS011;17112;48.636;10.152;2022-11-03T02:21:24;6.63;;;3.17;;
30303;SDS011;17112;48.636;10.152;2022-11-03T02:26:25;9.90;;;3.10;;
30303;SDS011;17112;48.636;10.152;2022-11-03T02:28:51;7.63;;;3.60;;
30303;SDS011;17112;48.636;10.152;2022-11-03T02:31:21;5.88;;;3.40;;
30303;SDS011;17112;48.636;10.152;2022-11-03T02:36:54;10.55;;;3.20;;
30303;SDS011;17112;48.636;10.152;2022-11-03T02:42:10;5.90;;;3.15;;
30303;SDS011;17112;48.636;10.152;2022-11-03T02:44:37;6.03;;;3.28;;
30303;SDS011;17112;48.636;10.152;2022-11-03T02:47:05;5.57;;;3.17;;
30303;SDS011;17112;48.636;10.152;2022-11-03T02:49:37;7.05;;;3.47;;
30303;SDS011;17112;48.636;10.152;2022-11-03T02:52:04;7.03;;;3.38;;
30303;SDS011;17112;48.636;10.152;2022-11-03T02:54:32;10.10;;;3.92;;
30303;SDS011;17112;48.636;10.152;2022-11-03T02:57:13;8.55;;;3.45;;
30303;SDS011;17112;48.636;10.152;2022-11-03T02:59:44;7.03;;;3.45;;
30303;SDS011;17112;48.636;10.152;2022-11-03T03:02:17;5.28;;;2.97;;
30303;SDS011;17112;48.636;10.152;2022-11-03T03:04:52;7.90;;;3.50;;
30303;SDS011;17112;48.636;10.152;2022-11-03T03:07:23;5.25;;;2.83;;
30303;SDS011;17112;48.636;10.152;2022-11-03T03:10:27;7.18;;;3.75;;
30303;SDS011;17112;48.636;10.152;2022-11-03T03:12:48;6.15;;;3.20;;
30303;SDS011;17112;48.636;10.152;2022-11-03T03:15:17;8.48;;;3.22;;
30303;SDS011;17112;48.636;10.152;2022-11-03T03:17:53;5.15;;;2.85;;
30303;SDS011;17112;48.636;10.152;2022-11-03T03:23:47;8.10;;;3.67;;
30303;SDS011;17112;48.636;10.152;2022-11-03T03:26:43;10.13;;;3.17;;
30303;SDS011;17112;48.636;10.152;2022-11-03T03:29:23;9.95;;;3.85;;
30303;SDS011;17112;48.636;10.152;2022-11-03T03:31:54;9.10;;;3.87;;
30303;SDS011;17112;48.636;10.152;2022-11-03T03:34:23;6.15;;;3.72;;
30303;SDS011;17112;48.636;10.152;2022-11-03T03:36:50;6.95;;;3.50;;
30303;SDS011;17112;48.636;10.152;2022-11-03T03:39:18;8.05;;;4.00;;
30303;SDS011;17112;48.636;10.152;2022-11-03T03:41:45;6.13;;;3.88;;
30303;SDS011;17112;48.636;10.152;2022-11-03T03:44:13;6.05;;;3.50;;
30303;SDS011;17112;48.636;10.152;2022-11-03T03:46:42;10.00;;;3.47;;
30303;SDS011;17112;48.636;10.152;2022-11-03T03:49:12;8.38;;;3.40;;
30303;SDS011;17112;48.636;10.152;2022-11-03T03:51:38;7.78;;;3.78;;
30303;SDS011;17112;48.636;10.152;2022-11-03T03:54:06;6.20;;;4.03;;
30303;SDS011;17112;48.636;10.152;2022-11-03T03:56:41;8.52;;;3.47;;
30303;SDS011;17112;48.636;10.152;2022-11-03T03:59:13;7.47;;;3.63;;
30303;SDS011;17112;48.636;10.152;2022-11-03T04:01:39;5.90;;;3.92;;
30303;SDS011;17112;48.636;10.152;2022-11-03T04:04:05;9.75;;;4.20;;
30303;SDS011;17112;48.636;10.152;2022-11-03T04:06:31;4.72;;;3.50;;
30303;SDS011;17112;48.636;10.152;2022-11-03T04:08:57;7.43;;;3.47;;
30303;SDS011;17112;48.636;10.152;2022-11-03T04:11:22;6.72;;;3.85;;
30303;SDS011;17112;48.636;10.152;2022-11-03T04:14:08;5.40;;;3.47;;
30303;SDS011;17112;48.636;10.152;2022-11-03T04:16:52;7.15;;;3.40;;
30303;SDS011;17112;48.636;10.152;2022-11-03T04:19:36;5.88;;;3.60;;
30303;SDS011;17112;48.636;10.152;2022-11-03T04:22:21;5.43;;;3.65;;
30303;SDS011;17112;48.636;10.152;2022-11-03T04:24:48;8.07;;;4.05;;
30303;SDS011;17112;48.636;10.152;2022-11-03T04:27:31;8.93;;;4.00;;
30303;SDS011;17112;48.636;10.152;2022-11-03T04:30:19;5.93;;;3.40;;
30303;SDS011;17112;48.636;10.152;2022-11-03T04:32:45;5.80;;;3.35;;
30303;SDS011;17112;48.636;10.152;2022-11-03T04:35:13;6.72;;;3.78;;
30303;SDS011;17112;48.636;10.152;2022-11-03T04:37:44;7.78;;;3.85;;
30303;SDS011;17112;48.636;10.152;2022-11-03T04:40:15;5.65;;;3.45;;
30303;SDS011;17112;48.636;10.152;2022-11-03T04:42:43;5.57;;;3.42;;
30303;SDS011;17112;48.636;10.152;2022-11-03T04:45:13;7.72;;;3.88;;
30303;SDS011;17112;48.636;10.152;2022-11-03T04:47:49;7.55;;;3.65;;
30303;SDS011;17112;48.636;10.152;2022-11-03T04:50:17;12.40;;;4.13;;
30303;SDS011;17112;48.636;10.152;2022-11-03T04:52:45;6.63;;;3.97;;
30303;SDS011;17112;48.636;10.152;2022-11-03T04:55:16;6.32;;;3.38;;
30303;SDS011;17112;48.636;10.152;2022-11-03T04:57:44;8.40;;;3.60;;
30303;SDS011;17112;48.636;10.152;2022-11-03T05:00:13;8.48;;;4.07;;
30303;SDS011;17112;48.636;10.152;2022-11-03T05:02:42;6.60;;;3.80;;
30303;SDS011;17112;48.636;10.152;2022-11-03T05:05:16;7.55;;;4.03;;
30303;SDS011;17112;48.636;10.152;2022-11-03T05:07:53;5.60;;;3.38;;
30303;SDS011;17112;48.636;10.152;2022-11-03T05:10:23;8.63;;;3.70;;
30303;SDS011;17112;48.636;10.152;2022-11-03T05:12:50;7.50;;;4.10;;
30303;SDS011;17112;48.636;10.152;2022-11-03T05:15:27;8.18;;;3.83;;
30303;SDS011;17112;48.636;10.152;2022-11-03T05:18:02;6.00;;;4.00;;
30303;SDS011;17112;48.636;10.152;2022-11-03T05:20:39;7.55;;;3.92;;
30303;SDS011;17112;48.636;10.152;2022-11-03T05:23:12;5.97;;;3.90;;
30303;SDS011;17112;48.636;10.152;2022-11-03T05:25:42;9.75;;;4.00;;
30303;SDS011;17112;48.636;10.152;2022-11-03T05:30:59;7.80;;;4.05;;
30303;SDS011;17112;48.636;10.152;2022-11-03T05:33:29;6.60;;;3.88;;
30303;SDS011;17112;48.636;10.152;2022-11-03T05:36:00;10.52;;;5.07;;
30303;SDS011;17112;48.636;10.152;2022-11-03T05:38:30;11.80;;;5.32;;
30303;SDS011;17112;48.636;10.152;2022-11-03T05:40:58;12.32;;;5.03;;
30303;SDS011;17112;48.636;10.152;2022-11-03T05:43:24;14.68;;;5.72;;
30303;SDS011;17112;48.636;10.152;2022-11-03T05:45:54;10.27;;;5.15;;
30303;SDS011;17112;48.636;10.152;2022-11-03T05:48:26;14.05;;;5.22;;
30303;SDS011;17112;48.636;10.152;2022-11-03T05:50:57;17.17;;;5.15;;
30303;SDS011;17112;48.636;10.152;2022-11-03T05:53:29;18.42;;;5.47;;
30303;SDS011;17112;48.636;10.152;2022-11-03T05:55:57;14.52;;;5.40;;
30303;SDS011;17112;48.636;10.152;2022-11-03T05:58:37;18.08;;;6.20;;
30303;SDS011;17112;48.636;10.152;2022-11-03T06:01:12;15.50;;;5.40;;
30303;SDS011;17112;48.636;10.152;2022-11-03T06:03:43;23.92;;;6.63;;
30303;SDS011;17112;48.636;10.152;2022-11-03T06:06:23;18.63;;;6.47;;
30303;SDS011;17112;48.636;10.152;2022-11-03T06:08:55;22.52;;;5.50;;
30303;SDS011;17112;48.636;10.152;2022-11-03T06:11:30;24.33;;;5.65;;
30303;SDS011;17112;48.636;10.152;2022-11-03T06:13:59;25.15;;;6.55;;
30303;SDS011;17112;48.636;10.152;2022-11-03T06:16:46;35.13;;;6.95;;
30303;SDS011;17112;48.636;10.152;2022-11-03T06:19:39;31.63;;;6.78;;
30303;SDS011;17112;48.636;10.152;2022-11-03T06:24:46;25.58;;;6.32;;
30303;SDS011;17112;48.636;10.152;2022-11-03T06:27:15;19.55;;;5.78;;
30303;SDS011;17112;48.636;10.152;2022-11-03T06:29:58;38.40;;;6.22;;
30303;SDS011;17112;48.636;10.152;2022-11-03T06:32:27;59.42;;;6.40;;
30303;SDS011;17112;48.636;10.152;2022-11-03T06:34:54;80.25;;;7.80;;
30303;SDS011;17112;48.636;10.152;2022-11-03T06:37:25;32.35;;;7.82;;
30303;SDS011;17112;48.636;10.152;2022-11-03T06:39:59;32.35;;;7.10;;
30303;SDS011;17112;48.636;10.152;2022-11-03T06:42:40;49.72;;;7.18;;
30303;SDS011;17112;48.636;10.152;2022-11-03T06:47:38;58.67;;;7.00;;
30303;SDS011;17112;48.636;10.152;2022-11-03T06:50:16;63.35;;;7.82;;
30303;SDS011;17112;48.636;10.152;2022-11-03T06:52:46;86.60;;;9.15;;
30303;SDS011;17112;48.636;10.152;2022-11-03T06:55:26;67.82;;;8.05;;
30303;SDS011;17112;48.636;10.152;2022-11-03T06:57:57;39.13;;;6.70;;
30303;SDS011;17112;48.636;10.152;2022-11-03T07:00:27;34.28;;;5.90;;
30303;SDS011;17112;48.636;10.152;2022-11-03T07:05:49;23.27;;;5.45;;
30303;SDS011;17112;48.636;10.152;2022-11-03T07:08:22;75.25;;;7.75;;
30303;SDS011;17112;48.636;10.152;2022-11-03T07:13:40;50.53;;;7.38;;
30303;SDS011;17112;48.636;10.152;2022-11-03T07:16:13;18.83;;;7.32;;
30303;SDS011;17112;48.636;10.152;2022-11-03T07:18:43;45.22;;;7.43;;
30303;SDS011;17112;48.636;10.152;2022-11-03T07:21:31;44.80;;;8.52;;
30303;SDS011;17112;48.636;10.152;2022-11-03T07:26:47;43.78;;;7.25;;
30303;SDS011;17112;48.636;10.152;2022-11-03T07:29:37;37.05;;;8.55;;
30303;SDS011;17112;48.636;10.152;2022-11-03T07:32:07;50.33;;;7.78;;
30303;SDS011;17112;48.636;10.152;2022-11-03T07:34:40;51.63;;;8.48;;
30303;SDS011;17112;48.636;10.152;2022-11-03T07:37:08;40.05;;;7.57;;
30303;SDS011;17112;48.636;10.152;2022-11-03T07:39:44;42.97;;;6.90;;
30303;SDS011;17112;48.636;10.152;2022-11-03T07:42:44;34.65;;;6.63;;
30303;SDS011;17112;48.636;10.152;2022-11-03T07:45:06;32.53;;;6.85;;
30303;SDS011;17112;48.636;10.152;2022-11-03T07:47:56;66.13;;;5.72;;
30303;SDS011;17112;48.636;10.152;2022-11-03T07:50:21;33.55;;;5.57;;
30303;SDS011;17112;48.636;10.152;2022-11-03T07:52:47;40.63;;;6.38;;
30303;SDS011;17112;48.636;10.152;2022-11-03T07:55:13;52.25;;;6.18;;
30303;SDS011;17112;48.636;10.152;2022-11-03T07:57:39;53.70;;;6.03;;
30303;SDS011;17112;48.636;10.152;2022-11-03T08:00:06;49.53;;;5.00;;
30303;SDS011;17112;48.636;10.152;2022-11-03T08:03:03;72.22;;;5.50;;
30303;SDS011;17112;48.636;10.152;2022-11-03T08:05:29;27.83;;;4.40;;
30303;SDS011;17112;48.636;10.152;2022-11-03T08:07:55;27.02;;;4.80;;
30303;SDS011;17112;48.636;10.152;2022-11-03T08:10:20;32.35;;;4.95;;
30303;SDS011;17112;48.636;10.152;2022-11-03T08:12:46;26.38;;;4.55;;
30303;SDS011;17112;48.636;10.152;2022-11-03T08:15:12;53.85;;;5.50;;
30303;SDS011;17112;48.636;10.152;2022-11-03T08:17:39;25.73;;;4.90;;
30303;SDS011;17112;48.636;10.152;2022-11-03T08:20:05;14.65;;;5.63;;
30303;SDS011;17112;48.636;10.152;2022-11-03T08:22:31;35.88;;;4.78;;
30303;SDS011;17112;48.636;10.152;2022-11-03T08:24:57;34.55;;;6.00;;
30303;SDS011;17112;48.636;10.152;2022-11-03T08:27:22;20.65;;;5.47;;
30303;SDS011;17112;48.636;10.152;2022-11-03T08:29:49;31.95;;;4.82;;
30303;SDS011;17112;48.636;10.152;2022-11-03T08:32:14;31.33;;;5.10;;
30303;SDS011;17112;48.636;10.152;2022-11-03T08:34:40;18.77;;;4.93;;
30303;SDS011;17112;48.636;10.152;2022-11-03T08:37:05;31.65;;;8.32;;
30303;SDS011;17112;48.636;10.152;2022-11-03T08:39:31;29.63;;;5.85;;
30303;SDS011;17112;48.636;10.152;2022-11-03T08:41:57;25.50;;;5.63;;
30303;SDS011;17112;48.636;10.152;2022-11-03T08:44:22;23.55;;;6.05;;
30303;SDS011;17112;48.636;10.152;2022-11-03T08:46:48;27.90;;;5.18;;
30303;SDS011;17112;48.636;10.152;2022-11-03T08:49:14;33.92;;;5.70;;
30303;SDS011;17112;48.636;10.152;2022-11-03T08:51:39;28.15;;;6.43;;
30303;SDS011;17112;48.636;10.152;2022-11-03T08:54:05;33.72;;;6.57;;
30303;SDS011;17112;48.636;10.152;2022-11-03T08:56:30;44.45;;;6.55;;
30303;SDS011;17112;48.636;10.152;2022-11-03T08:58:56;36.40;;;5.15;;
30303;SDS011;17112;48.636;10.152;2022-11-03T09:01:23;36.58;;;6.05;;
30303;SDS011;17112;48.636;10.152;2022-11-03T09:03:49;15.30;;;4.93;;
30303;SDS011;17112;48.636;10.152;2022-11-03T09:06:14;18.55;;;4.78;;
30303;SDS011;17112;48.636;10.152;2022-11-03T09:08:40;19.23;;;7.75;;
30303;SDS011;17112;48.636;10.152;2022-11-03T09:11:06;38.75;;;6.45;;
30303;SDS011;17112;48.636;10.152;2022-11-03T09:13:31;24.92;;;6.95;;
30303;SDS011;17112;48.636;10.152;2022-11-03T09:15:57;13.27;;;5.78;;
30303;SDS011;17112;48.636;10.152;2022-11-03T09:18:24;72.53;;;23.48;;
30303;SDS011;17112;48.636;10.152;2022-11-03T09:20:50;19.35;;;7.47;;
30303;SDS011;17112;48.636;10.152;2022-11-03T09:23:15;32.83;;;6.90;;
30303;SDS011;17112;48.636;10.152;2022-11-03T09:25:41;23.55;;;5.07;;
30303;SDS011;17112;48.636;10.152;2022-11-03T09:28:07;18.20;;;4.88;;
30303;SDS011;17112;48.636;10.152;2022-11-03T09:30:32;9.40;;;4.35;;
30303;SDS011;17112;48.636;10.152;2022-11-03T09:32:58;16.20;;;5.13;;
30303;SDS011;17112;48.636;10.152;2022-11-03T09:35:23;20.55;;;5.07;;
30303;SDS011;17112;48.636;10.152;2022-11-03T09:37:49;13.60;;;4.88;;
30303;SDS011;17112;48.636;10.152;2022-11-03T09:40:15;14.48;;;4.60;;
30303;SDS011;17112;48.636;10.152;2022-11-03T09:42:41;15.55;;;5.22;;
30303;SDS011;17112;48.636;10.152;2022-11-03T09:45:09;11.02;;;5.03;;
30303;SDS011;17112;48.636;10.152;2022-11-03T09:47:35;11.00;;;5.13;;
30303;SDS011;17112;48.636;10.152;2022-11-03T09:50:04;16.08;;;5.60;;
30303;SDS011;17112;48.636;10.152;2022-11-03T09:52:30;15.57;;;4.60;;
30303;SDS011;17112;48.636;10.152;2022-11-03T09:54:59;11.95;;;4.85;;
30303;SDS011;17112;48.636;10.152;2022-11-03T09:57:26;11.10;;;6.40;;
30303;SDS011;17112;48.636;10.152;2022-11-03T09:59:52;10.18;;;6.07;;
30303;SDS011;17112;48.636;10.152;2022-11-03T10:02:23;14.02;;;6.40;;
30303;SDS011;17112;48.636;10.152;2022-11-03T10:04:50;8.23;;;5.18;;
30303;SDS011;17112;48.636;10.152;2022-11-03T10:07:19;11.23;;;5.63;;
30303;SDS011;17112;48.636;10.152;2022-11-03T10:09:48;7.32;;;4.88;;
30303;SDS011;17112;48.636;10.152;2022-11-03T10:12:16;9.88;;;5.60;;
30303;SDS011;17112;48.636;10.152;2022-11-03T10:14:42;7.03;;;4.70;;
30303;SDS011;17112;48.636;10.152;2022-11-03T10:17:14;14.57;;;5.65;;
30303;SDS011;17112;48.636;10.152;2022-11-03T10:22:15;9.35;;;5.72;;
30303;SDS011;17112;48.636;10.152;2022-11-03T10:24:41;7.15;;;5.53;;
30303;SDS011;17112;48.636;10.152;2022-11-03T10:27:20;12.48;;;5.30;;
30303;SDS011;17112;48.636;10.152;2022-11-03T10:30:06;8.73;;;5.93;;
30303;SDS011;17112;48.636;10.152;2022-11-03T10:32:34;11.93;;;5.30;;
30303;SDS011;17112;48.636;10.152;2022-11-03T10:35:02;6.22;;;4.47;;
30303;SDS011;17112;48.636;10.152;2022-11-03T10:41:19;6.03;;;4.63;;
30303;SDS011;17112;48.636;10.152;2022-11-03T10:46:56;9.25;;;6.63;;
30303;SDS011;17112;48.636;10.152;2022-11-03T10:49:39;6.03;;;4.85;;
30303;SDS011;17112;48.636;10.152;2022-11-03T10:54:46;6.95;;;4.35;;
30303;SDS011;17112;48.636;10.152;2022-11-03T10:57:13;7.60;;;4.93;;
30303;SDS011;17112;48.636;10.152;2022-11-03T10:59:40;6.82;;;4.80;;
30303;SDS011;17112;48.636;10.152;2022-11-03T11:02:20;6.45;;;4.80;;
30303;SDS011;17112;48.636;10.152;2022-11-03T11:04:51;10.82;;;4.75;;
30303;SDS011;17112;48.636;10.152;2022-11-03T11:07:24;7.45;;;3.95;;
30303;SDS011;17112;48.636;10.152;2022-11-03T11:09:57;4.75;;;3.92;;
30303;SDS011;17112;48.636;10.152;2022-11-03T11:15:43;4.72;;;4.00;;
30303;SDS011;17112;48.636;10.152;2022-11-03T11:18:10;5.43;;;4.07;;
30303;SDS011;17112;48.636;10.152;2022-11-03T11:23:53;5.82;;;4.57;;
30303;SDS011;17112;48.636;10.152;2022-11-03T11:51:21;7.47;;;5.07;;
30303;SDS011;17112;48.636;10.152;2022-11-03T11:53:50;7.15;;;5.35;;
30303;SDS011;17112;48.636;10.152;2022-11-03T11:56:18;6.43;;;5.75;;
30303;SDS011;17112;48.636;10.152;2022-11-03T11:58:53;9.10;;;6.43;;
30303;SDS011;17112;48.636;10.152;2022-11-03T12:01:25;8.95;;;6.38;;
30303;SDS011;17112;48.636;10.152;2022-11-03T12:03:55;9.85;;;6.30;;
30303;SDS011;17112;48.636;10.152;2022-11-03T12:06:32;9.00;;;6.07;;
30303;SDS011;17112;48.636;10.152;2022-11-03T12:09:22;8.45;;;6.57;;
30303;SDS011;17112;48.636;10.152;2022-11-03T12:39:14;12.07;;;8.15;;
30303;SDS011;17112;48.636;10.152;2022-11-03T12:49:26;12.70;;;8.38;;
30303;SDS011;17112;48.636;10.152;2022-11-03T12:52:51;15.60;;;9.85;;
30303;SDS011;17112;48.636;10.152;2022-11-03T12:59:42;20.08;;;10.07;;
30303;SDS011;17112;48.636;10.152;2022-11-03T13:03:25;21.45;;;10.30;;
30303;SDS011;17112;48.636;10.152;2022-11-03T13:06:39;21.15;;;11.77;;
30303;SDS011;17112;48.636;10.152;2022-11-03T13:10:09;17.02;;;10.48;;
30303;SDS011;17112;48.636;10.152;2022-11-03T13:13:39;26.50;;;13.85;;
30303;SDS011;17112;48.636;10.152;2022-11-03T13:17:15;25.50;;;13.65;;
30303;SDS011;17112;48.636;10.152;2022-11-03T13:20:23;26.27;;;14.73;;
30303;SDS011;17112;48.636;10.152;2022-11-03T13:23:49;29.85;;;16.40;;
30303;SDS011;17112;48.636;10.152;2022-11-03T13:26:49;24.80;;;14.32;;
30303;SDS011;17112;48.636;10.152;2022-11-03T13:29:21;35.90;;;18.23;;
30303;SDS011;17112;48.636;10.152;2022-11-03T13:32:06;42.53;;;21.02;;
30303;SDS011;17112;48.636;10.152;2022-11-03T13:34:33;44.92;;;22.65;;
30303;SDS011;17112;48.636;10.152;2022-11-03T13:36:59;44.75;;;22.63;;
30303;SDS011;17112;48.636;10.152;2022-11-03T13:39:29;49.72;;;24.13;;
30303;SDS011;17112;48.636;10.152;2022-11-03T13:42:37;44.33;;;20.73;;
30303;SDS011;17112;48.636;10.152;2022-11-03T13:45:40;45.28;;;21.70;;
30303;SDS011;17112;48.636;10.152;2022-11-03T13:48:52;42.50;;;21.95;;
30303;SDS011;17112;48.636;10.152;2022-11-03T13:51:29;43.97;;;22.58;;
30303;SDS011;17112;48.636;10.152;2022-11-03T13:58:22;84.30;;;47.30;;
30303;SDS011;17112;48.636;10.152;2022-11-03T14:16:30;23.35;;;12.35;;
30303;SDS011;17112;48.636;10.152;2022-11-03T14:19:00;21.45;;;12.05;;
30303;SDS011;17112;48.636;10.152;2022-11-03T14:22:05;21.73;;;12.13;;
30303;SDS011;17112;48.636;10.152;2022-11-03T14:24:32;23.52;;;13.30;;
30303;SDS011;17112;48.636;10.152;2022-11-03T14:27:38;25.15;;;15.02;;
30303;SDS011;17112;48.636;10.152;2022-11-03T14:30:08;20.98;;;12.60;;
30303;SDS011;17112;48.636;10.152;2022-11-03T14:33:19;13.93;;;9.63;;
30303;SDS011;17112;48.636;10.152;2022-11-03T14:36:51;13.57;;;9.13;;
30303;SDS011;17112;48.636;10.152;2022-11-03T14:40:11;15.15;;;8.98;;
30303;SDS011;17112;48.636;10.152;2022-11-03T14:43:38;13.00;;;7.97;;
30303;SDS011;17112;48.636;10.152;2022-11-03T14:46:47;12.65;;;8.70;;
30303;SDS011;17112;48.636;10.152;2022-11-03T14:53:13;12.57;;;7.78;;
30303;SDS011;17112;48.636;10.152;2022-11-03T14:57:03;13.35;;;7.93;;
30303;SDS011;17112;48.636;10.152;2022-11-03T15:00:54;13.63;;;7.80;;
30303;SDS011;17112;48.636;10.152;2022-11-03T15:08:14;12.10;;;7.68;;
30303;SDS011;17112;48.636;10.152;2022-11-03T15:10:58;12.35;;;8.48;;
30303;SDS011;17112;48.636;10.152;2022-11-03T15:13:31;11.35;;;8.63;;
30303;SDS011;17112;48.636;10.152;2022-11-03T15:16:47;13.23;;;8.23;;
30303;SDS011;17112;48.636;10.152;2022-11-03T15:19:37;12.13;;;8.05;;
30303;SDS011;17112;48.636;10.152;2022-11-03T15:22:25;10.98;;;7.93;;
30303;SDS011;17112;48.636;10.152;2022-11-03T15:25:32;14.18;;;8.82;;
30303;SDS011;17112;48.636;10.152;2022-11-03T15:27:58;15.23;;;8.73;;
30303;SDS011;17112;48.636;10.152;2022-11-03T15:30:59;12.27;;;8.98;;
30303;SDS011;17112;48.636;10.152;2022-11-03T15:33:24;13.65;;;8.32;;
30303;SDS011;17112;48.636;10.152;2022-11-03T15:36:10;13.70;;;8.40;;
30303;SDS011;17112;48.636;10.152;2022-11-03T15:38:36;13.10;;;9.50;;
30303;SDS011;17112;48.636;10.152;2022-11-03T15:41:01;13.50;;;9.00;;
30303;SDS011;17112;48.636;10.152;2022-11-03T15:43:46;12.05;;;8.68;;
30303;SDS011;17112;48.636;10.152;2022-11-03T15:46:13;12.18;;;8.30;;
30303;SDS011;17112;48.636;10.152;2022-11-03T15:48:40;13.48;;;8.15;;
30303;SDS011;17112;48.636;10.152;2022-11-03T15:51:06;9.60;;;8.15;;
30303;SDS011;17112;48.636;10.152;2022-11-03T15:53:32;13.82;;;9.57;;
30303;SDS011;17112;48.636;10.152;2022-11-03T15:55:58;19.67;;;12.52;;
30303;SDS011;17112;48.636;10.152;2022-11-03T15:58:24;18.23;;;12.23;;
30303;SDS011;17112;48.636;10.152;2022-11-03T16:00:49;20.65;;;14.25;;
30303;SDS011;17112;48.636;10.152;2022-11-03T16:03:15;21.45;;;12.95;;
30303;SDS011;17112;48.636;10.152;2022-11-03T16:05:41;13.10;;;9.65;;
30303;SDS011;17112;48.636;10.152;2022-11-03T16:08:06;15.38;;;8.55;;
30303;SDS011;17112;48.636;10.152;2022-11-03T16:10:32;14.63;;;9.98;;
30303;SDS011;17112;48.636;10.152;2022-11-03T16:12:59;21.08;;;11.48;;
30303;SDS011;17112;48.636;10.152;2022-11-03T16:15:26;17.88;;;11.35;;
30303;SDS011;17112;48.636;10.152;2022-11-03T16:17:52;14.45;;;9.60;;
30303;SDS011;17112;48.636;10.152;2022-11-03T16:20:17;13.32;;;9.43;;
30303;SDS011;17112;48.636;10.152;2022-11-03T16:22:45;10.95;;;8.68;;
30303;SDS011;17112;48.636;10.152;2022-11-03T16:25:10;14.68;;;9.02;;
30303;SDS011;17112;48.636;10.152;2022-11-03T16:27:36;12.82;;;8.98;;
30303;SDS011;17112;48.636;10.152;2022-11-03T16:30:02;11.48;;;8.70;;
30303;SDS011;17112;48.636;10.152;2022-11-03T16:32:28;13.63;;;8.90;;
30303;SDS011;17112;48.636;10.152;2022-11-03T16:34:54;17.30;;;9.90;;
30303;SDS011;17112;48.636;10.152;2022-11-03T16:37:19;11.70;;;8.23;;
30303;SDS011;17112;48.636;10.152;2022-11-03T16:39:45;19.27;;;8.98;;
30303;SDS011;17112;48.636;10.152;2022-11-03T16:42:11;12.30;;;8.32;;
30303;SDS011;17112;48.636;10.152;2022-11-03T16:44:36;14.63;;;9.10;;
30303;SDS011;17112;48.636;10.152;2022-11-03T16:47:02;11.95;;;9.20;;
30303;SDS011;17112;48.636;10.152;2022-11-03T16:49:28;13.27;;;9.73;;
30303;SDS011;17112;48.636;10.152;2022-11-03T16:51:53;15.38;;;9.60;;
30303;SDS011;17112;48.636;10.152;2022-11-03T16:54:19;12.13;;;9.40;;
30303;SDS011;17112;48.636;10.152;2022-11-03T16:56:46;12.23;;;9.13;;
30303;SDS011;17112;48.636;10.152;2022-11-03T16:59:11;13.50;;;9.20;;
30303;SDS011;17112;48.636;10.152;2022-11-03T17:01:37;11.70;;;8.85;;
30303;SDS011;17112;48.636;10.152;2022-11-03T17:04:03;13.80;;;8.32;;
30303;SDS011;17112;48.636;10.152;2022-11-03T17:06:29;14.02;;;9.52;;
30303;SDS011;17112;48.636;10.152;2022-11-03T17:08:55;16.75;;;9.55;;
30303;SDS011;17112;48.636;10.152;2022-11-03T17:11:20;13.45;;;9.70;;
30303;SDS011;17112;48.636;10.152;2022-11-03T17:14:09;15.90;;;8.93;;
30303;SDS011;17112;48.636;10.152;2022-11-03T17:16:38;14.85;;;9.57;;
30303;SDS011;17112;48.636;10.152;2022-11-03T17:19:10;16.13;;;9.63;;
30303;SDS011;17112;48.636;10.152;2022-11-03T17:21:36;21.10;;;8.68;;
30303;SDS011;17112;48.636;10.152;2022-11-03T17:24:02;16.92;;;9.75;;
30303;SDS011;17112;48.636;10.152;2022-11-03T17:26:34;12.40;;;8.68;;